sensor_id;sensor_type;location;lat;lon;timestamp;P1;durP1;ratioP1;P2;durP2;ratioP2
8260;SDS011;64115;50.170;8.242;2023-07-02T00:01:56;4.80;;;2.70;;
8260;SDS011;64115;50.170;8.242;2023-07-02T00:04:23;2.57;;;2.37;;
8260;SDS011;64115;50.170;8.242;2023-07-02T00:06:50;5.20;;;2.37;;
8260;SDS011;64115;50.170;8.242;2023-07-02T00:09:17;3.90;;;2.53;;
8260;SDS011;64115;50.170;8.242;2023-07-02T00:11:45;4.40;;;2.60;;
8260;SDS011;64115;50.170;8.242;2023-07-02T00:14:13;5.17;;;2.80;;
8260;SDS011;64115;50.170;8.242;2023-07-02T00:16:41;3.63;;;2.67;;
8260;SDS011;64115;50.170;8.242;2023-07-02T00:19:11;3.17;;;2.53;;
8260;SDS011;64115;50.170;8.242;2023-07-02T00:21:40;6.03;;;2.83;;
8260;SDS011;64115;50.170;8.242;2023-07-02T00:24:07;3.47;;;2.60;;
8260;SDS011;64115;50.170;8.242;2023-07-02T00:26:35;4.80;;;2.70;;
8260;SDS011;64115;50.170;8.242;2023-07-02T00:29:03;4.10;;;2.83;;
8260;SDS011;64115;50.170;8.242;2023-07-02T00:31:31;6.07;;;2.70;;
8260;SDS011;64115;50.170;8.242;2023-07-02T00:33:58;2.50;;;2.30;;
8260;SDS011;64115;50.170;8.242;2023-07-02T00:36:27;4.83;;;2.67;;
8260;SDS011;64115;50.170;8.242;2023-07-02T00:38:55;2.93;;;2.60;;
8260;SDS011;64115;50.170;8.242;2023-07-02T00:41:22;4.10;;;2.50;;
8260;SDS011;64115;50.170;8.242;2023-07-02T00:43:49;3.37;;;2.43;;
8260;SDS011;64115;50.170;8.242;2023-07-02T00:46:19;10.03;;;3.17;;
8260;SDS011;64115;50.170;8.242;2023-07-02T00:48:47;2.80;;;2.47;;
8260;SDS011;64115;50.170;8.242;2023-07-02T00:51:16;4.23;;;2.57;;
8260;SDS011;64115;50.170;8.242;2023-07-02T00:53:45;4.73;;;2.37;;
8260;SDS011;64115;50.170;8.242;2023-07-02T00:56:15;5.20;;;2.80;;
8260;SDS011;64115;50.170;8.242;2023-07-02T00:58:43;4.43;;;2.60;;
8260;SDS011;64115;50.170;8.242;2023-07-02T01:01:12;2.93;;;2.70;;
8260;SDS011;64115;50.170;8.242;2023-07-02T01:03:49;3.83;;;2.50;;
8260;SDS011;64115;50.170;8.242;2023-07-02T01:06:18;4.50;;;2.50;;
8260;SDS011;64115;50.170;8.242;2023-07-02T01:08:51;6.60;;;3.10;;
8260;SDS011;64115;50.170;8.242;2023-07-02T01:11:19;3.13;;;2.83;;
8260;SDS011;64115;50.170;8.242;2023-07-02T01:13:49;3.17;;;2.47;;
8260;SDS011;64115;50.170;8.242;2023-07-02T01:16:21;3.73;;;2.70;;
8260;SDS011;64115;50.170;8.242;2023-07-02T01:18:49;9.17;;;2.77;;
8260;SDS011;64115;50.170;8.242;2023-07-02T01:21:20;3.50;;;2.83;;
8260;SDS011;64115;50.170;8.242;2023-07-02T01:23:48;5.30;;;2.80;;
8260;SDS011;64115;50.170;8.242;2023-07-02T01:26:15;3.20;;;2.90;;
8260;SDS011;64115;50.170;8.242;2023-07-02T01:28:42;6.80;;;3.00;;
8260;SDS011;64115;50.170;8.242;2023-07-02T01:31:09;5.90;;;2.77;;
8260;SDS011;64115;50.170;8.242;2023-07-02T01:33:36;2.80;;;2.50;;
8260;SDS011;64115;50.170;8.242;2023-07-02T01:36:03;4.17;;;3.00;;
8260;SDS011;64115;50.170;8.242;2023-07-02T01:38:31;2.90;;;2.57;;
8260;SDS011;64115;50.170;8.242;2023-07-02T01:40:58;3.83;;;2.80;;
8260;SDS011;64115;50.170;8.242;2023-07-02T01:43:25;2.90;;;2.60;;
8260;SDS011;64115;50.170;8.242;2023-07-02T01:45:51;3.70;;;2.77;;
8260;SDS011;64115;50.170;8.242;2023-07-02T01:48:20;4.93;;;2.73;;
8260;SDS011;64115;50.170;8.242;2023-07-02T01:50:47;4.73;;;2.90;;
8260;SDS011;64115;50.170;8.242;2023-07-02T01:53:14;3.23;;;2.80;;
8260;SDS011;64115;50.170;8.242;2023-07-02T01:55:42;3.77;;;2.90;;
8260;SDS011;64115;50.170;8.242;2023-07-02T01:58:09;4.00;;;2.93;;
8260;SDS011;64115;50.170;8.242;2023-07-02T02:00:35;6.27;;;3.10;;
8260;SDS011;64115;50.170;8.242;2023-07-02T02:03:02;6.10;;;3.10;;
8260;SDS011;64115;50.170;8.242;2023-07-02T02:05:30;4.20;;;2.80;;
8260;SDS011;64115;50.170;8.242;2023-07-02T02:07:57;4.67;;;3.10;;
8260;SDS011;64115;50.170;8.242;2023-07-02T02:10:24;3.53;;;3.00;;
8260;SDS011;64115;50.170;8.242;2023-07-02T02:12:52;3.20;;;2.90;;
8260;SDS011;64115;50.170;8.242;2023-07-02T02:15:19;5.23;;;3.03;;
8260;SDS011;64115;50.170;8.242;2023-07-02T02:17:45;5.70;;;3.13;;
8260;SDS011;64115;50.170;8.242;2023-07-02T02:20:12;3.10;;;2.80;;
8260;SDS011;64115;50.170;8.242;2023-07-02T02:22:41;3.77;;;3.27;;
8260;SDS011;64115;50.170;8.242;2023-07-02T02:25:08;3.73;;;3.03;;
8260;SDS011;64115;50.170;8.242;2023-07-02T02:27:35;7.37;;;3.40;;
8260;SDS011;64115;50.170;8.242;2023-07-02T02:30:04;5.73;;;3.40;;
8260;SDS011;64115;50.170;8.242;2023-07-02T02:32:32;5.83;;;3.60;;
8260;SDS011;64115;50.170;8.242;2023-07-02T02:34:59;4.93;;;3.13;;
8260;SDS011;64115;50.170;8.242;2023-07-02T02:37:26;4.93;;;3.57;;
8260;SDS011;64115;50.170;8.242;2023-07-02T02:39:55;4.50;;;3.60;;
8260;SDS011;64115;50.170;8.242;2023-07-02T02:42:22;7.97;;;3.97;;
8260;SDS011;64115;50.170;8.242;2023-07-02T02:44:50;8.47;;;4.67;;
8260;SDS011;64115;50.170;8.242;2023-07-02T02:47:18;9.43;;;4.47;;
8260;SDS011;64115;50.170;8.242;2023-07-02T02:49:45;5.30;;;4.60;;
8260;SDS011;64115;50.170;8.242;2023-07-02T02:52:12;6.00;;;4.30;;
8260;SDS011;64115;50.170;8.242;2023-07-02T02:54:39;8.10;;;4.87;;
8260;SDS011;64115;50.170;8.242;2023-07-02T02:57:06;8.77;;;4.87;;
8260;SDS011;64115;50.170;8.242;2023-07-02T02:59:33;6.33;;;4.67;;
8260;SDS011;64115;50.170;8.242;2023-07-02T03:01:59;7.90;;;4.70;;
8260;SDS011;64115;50.170;8.242;2023-07-02T03:04:28;8.03;;;4.37;;
8260;SDS011;64115;50.170;8.242;2023-07-02T03:06:54;7.03;;;4.87;;
8260;SDS011;64115;50.170;8.242;2023-07-02T03:09:21;8.07;;;5.60;;
8260;SDS011;64115;50.170;8.242;2023-07-02T03:11:48;6.23;;;4.93;;
8260;SDS011;64115;50.170;8.242;2023-07-02T03:14:15;8.37;;;5.40;;
8260;SDS011;64115;50.170;8.242;2023-07-02T03:16:42;7.53;;;5.00;;
8260;SDS011;64115;50.170;8.242;2023-07-02T03:19:10;6.43;;;5.10;;
8260;SDS011;64115;50.170;8.242;2023-07-02T03:21:41;9.47;;;5.47;;
8260;SDS011;64115;50.170;8.242;2023-07-02T03:24:08;11.37;;;5.83;;
8260;SDS011;64115;50.170;8.242;2023-07-02T03:26:36;9.77;;;6.10;;
8260;SDS011;64115;50.170;8.242;2023-07-02T03:29:03;10.00;;;5.63;;
8260;SDS011;64115;50.170;8.242;2023-07-02T03:31:30;10.87;;;6.00;;
8260;SDS011;64115;50.170;8.242;2023-07-02T03:33:57;8.07;;;5.67;;
8260;SDS011;64115;50.170;8.242;2023-07-02T03:36:26;7.10;;;6.27;;
8260;SDS011;64115;50.170;8.242;2023-07-02T03:38:54;10.27;;;6.57;;
8260;SDS011;64115;50.170;8.242;2023-07-02T03:41:20;11.30;;;6.53;;
8260;SDS011;64115;50.170;8.242;2023-07-02T03:43:47;11.50;;;6.40;;
8260;SDS011;64115;50.170;8.242;2023-07-02T03:46:14;20.20;;;7.63;;
8260;SDS011;64115;50.170;8.242;2023-07-02T03:48:40;11.93;;;7.10;;
8260;SDS011;64115;50.170;8.242;2023-07-02T03:51:07;12.17;;;7.63;;
8260;SDS011;64115;50.170;8.242;2023-07-02T03:53:34;15.77;;;8.40;;
8260;SDS011;64115;50.170;8.242;2023-07-02T03:56:02;12.57;;;8.10;;
8260;SDS011;64115;50.170;8.242;2023-07-02T03:58:29;18.03;;;8.37;;
8260;SDS011;64115;50.170;8.242;2023-07-02T04:00:56;12.13;;;8.27;;
8260;SDS011;64115;50.170;8.242;2023-07-02T04:03:22;14.40;;;8.47;;
8260;SDS011;64115;50.170;8.242;2023-07-02T04:05:49;15.77;;;9.03;;
8260;SDS011;64115;50.170;8.242;2023-07-02T04:08:16;11.63;;;8.07;;
8260;SDS011;64115;50.170;8.242;2023-07-02T04:10:43;15.07;;;7.93;;
8260;SDS011;64115;50.170;8.242;2023-07-02T04:13:11;12.53;;;8.40;;
8260;SDS011;64115;50.170;8.242;2023-07-02T04:15:37;15.00;;;8.50;;
8260;SDS011;64115;50.170;8.242;2023-07-02T04:18:04;17.57;;;8.03;;
8260;SDS011;64115;50.170;8.242;2023-07-02T04:20:31;14.43;;;8.57;;
8260;SDS011;64115;50.170;8.242;2023-07-02T04:22:58;12.83;;;8.00;;
8260;SDS011;64115;50.170;8.242;2023-07-02T04:25:25;15.43;;;8.47;;
8260;SDS011;64115;50.170;8.242;2023-07-02T04:27:51;13.47;;;8.20;;
8260;SDS011;64115;50.170;8.242;2023-07-02T04:30:22;13.17;;;8.40;;
8260;SDS011;64115;50.170;8.242;2023-07-02T04:32:49;10.07;;;7.83;;
8260;SDS011;64115;50.170;8.242;2023-07-02T04:35:16;10.60;;;7.77;;
8260;SDS011;64115;50.170;8.242;2023-07-02T04:37:43;10.83;;;7.97;;
8260;SDS011;64115;50.170;8.242;2023-07-02T04:40:10;12.63;;;7.70;;
8260;SDS011;64115;50.170;8.242;2023-07-02T04:42:37;10.83;;;7.67;;
8260;SDS011;64115;50.170;8.242;2023-07-02T04:45:05;12.13;;;7.50;;
8260;SDS011;64115;50.170;8.242;2023-07-02T04:47:34;15.63;;;8.53;;
8260;SDS011;64115;50.170;8.242;2023-07-02T04:50:01;10.57;;;7.67;;
8260;SDS011;64115;50.170;8.242;2023-07-02T04:52:28;11.40;;;7.73;;
8260;SDS011;64115;50.170;8.242;2023-07-02T04:54:55;11.83;;;8.20;;
8260;SDS011;64115;50.170;8.242;2023-07-02T04:57:22;9.67;;;7.30;;
8260;SDS011;64115;50.170;8.242;2023-07-02T04:59:48;13.73;;;7.87;;
8260;SDS011;64115;50.170;8.242;2023-07-02T05:02:15;11.90;;;8.30;;
8260;SDS011;64115;50.170;8.242;2023-07-02T05:04:43;9.93;;;8.13;;
8260;SDS011;64115;50.170;8.242;2023-07-02T05:07:10;12.27;;;8.00;;
8260;SDS011;64115;50.170;8.242;2023-07-02T05:09:37;15.30;;;8.10;;
8260;SDS011;64115;50.170;8.242;2023-07-02T05:12:04;15.37;;;8.17;;
8260;SDS011;64115;50.170;8.242;2023-07-02T05:14:31;12.97;;;7.60;;
8260;SDS011;64115;50.170;8.242;2023-07-02T05:17:02;10.73;;;7.83;;
8260;SDS011;64115;50.170;8.242;2023-07-02T05:19:29;12.20;;;8.13;;
8260;SDS011;64115;50.170;8.242;2023-07-02T05:21:58;12.67;;;8.40;;
8260;SDS011;64115;50.170;8.242;2023-07-02T05:24:24;12.53;;;8.30;;
8260;SDS011;64115;50.170;8.242;2023-07-02T05:26:51;13.77;;;7.93;;
8260;SDS011;64115;50.170;8.242;2023-07-02T05:29:18;10.47;;;8.13;;
8260;SDS011;64115;50.170;8.242;2023-07-02T05:31:45;14.27;;;8.63;;
8260;SDS011;64115;50.170;8.242;2023-07-02T05:34:12;14.20;;;8.13;;
8260;SDS011;64115;50.170;8.242;2023-07-02T05:36:38;12.47;;;8.30;;
8260;SDS011;64115;50.170;8.242;2023-07-02T05:39:06;15.63;;;9.10;;
8260;SDS011;64115;50.170;8.242;2023-07-02T05:41:33;12.27;;;8.53;;
8260;SDS011;64115;50.170;8.242;2023-07-02T05:44:00;12.57;;;8.43;;
8260;SDS011;64115;50.170;8.242;2023-07-02T05:46:27;14.80;;;8.03;;
8260;SDS011;64115;50.170;8.242;2023-07-02T05:48:54;12.83;;;8.83;;
8260;SDS011;64115;50.170;8.242;2023-07-02T05:51:22;12.97;;;8.67;;
8260;SDS011;64115;50.170;8.242;2023-07-02T05:53:49;13.57;;;8.10;;
8260;SDS011;64115;50.170;8.242;2023-07-02T05:56:19;14.37;;;8.37;;
8260;SDS011;64115;50.170;8.242;2023-07-02T05:58:46;12.10;;;8.40;;
8260;SDS011;64115;50.170;8.242;2023-07-02T06:01:12;10.90;;;8.80;;
8260;SDS011;64115;50.170;8.242;2023-07-02T06:03:40;11.30;;;8.10;;
8260;SDS011;64115;50.170;8.242;2023-07-02T06:06:07;16.37;;;8.43;;
8260;SDS011;64115;50.170;8.242;2023-07-02T06:08:37;12.00;;;8.47;;
8260;SDS011;64115;50.170;8.242;2023-07-02T06:11:03;15.07;;;9.03;;
8260;SDS011;64115;50.170;8.242;2023-07-02T06:13:31;13.77;;;8.43;;
8260;SDS011;64115;50.170;8.242;2023-07-02T06:15:58;16.20;;;8.73;;
8260;SDS011;64115;50.170;8.242;2023-07-02T06:18:25;14.93;;;9.10;;
8260;SDS011;64115;50.170;8.242;2023-07-02T06:20:52;15.53;;;8.60;;
8260;SDS011;64115;50.170;8.242;2023-07-02T06:23:18;17.23;;;8.70;;
8260;SDS011;64115;50.170;8.242;2023-07-02T06:25:45;15.47;;;9.07;;
8260;SDS011;64115;50.170;8.242;2023-07-02T06:28:12;11.23;;;8.37;;
8260;SDS011;64115;50.170;8.242;2023-07-02T06:30:40;13.50;;;8.37;;
8260;SDS011;64115;50.170;8.242;2023-07-02T06:33:07;13.20;;;8.90;;
8260;SDS011;64115;50.170;8.242;2023-07-02T06:35:34;16.97;;;9.53;;
8260;SDS011;64115;50.170;8.242;2023-07-02T06:38:00;14.07;;;8.10;;
8260;SDS011;64115;50.170;8.242;2023-07-02T06:40:30;12.83;;;8.93;;
8260;SDS011;64115;50.170;8.242;2023-07-02T06:42:57;13.67;;;9.13;;
8260;SDS011;64115;50.170;8.242;2023-07-02T06:45:23;16.00;;;8.93;;
8260;SDS011;64115;50.170;8.242;2023-07-02T06:47:51;15.77;;;9.43;;
8260;SDS011;64115;50.170;8.242;2023-07-02T06:50:18;13.33;;;9.70;;
8260;SDS011;64115;50.170;8.242;2023-07-02T06:52:45;12.10;;;8.73;;
8260;SDS011;64115;50.170;8.242;2023-07-02T06:55:12;14.80;;;9.47;;
8260;SDS011;64115;50.170;8.242;2023-07-02T06:57:41;14.63;;;8.87;;
8260;SDS011;64115;50.170;8.242;2023-07-02T07:00:09;18.13;;;10.20;;
8260;SDS011;64115;50.170;8.242;2023-07-02T07:02:37;10.53;;;8.53;;
8260;SDS011;64115;50.170;8.242;2023-07-02T07:05:05;12.63;;;8.67;;
8260;SDS011;64115;50.170;8.242;2023-07-02T07:07:33;12.80;;;8.97;;
8260;SDS011;64115;50.170;8.242;2023-07-02T07:10:00;12.30;;;9.07;;
8260;SDS011;64115;50.170;8.242;2023-07-02T07:12:27;15.93;;;9.07;;
8260;SDS011;64115;50.170;8.242;2023-07-02T07:14:53;14.53;;;9.37;;
8260;SDS011;64115;50.170;8.242;2023-07-02T07:17:20;13.27;;;8.77;;
8260;SDS011;64115;50.170;8.242;2023-07-02T07:19:47;13.33;;;9.00;;
8260;SDS011;64115;50.170;8.242;2023-07-02T07:22:16;14.10;;;9.13;;
8260;SDS011;64115;50.170;8.242;2023-07-02T07:24:43;12.27;;;8.67;;
8260;SDS011;64115;50.170;8.242;2023-07-02T07:27:09;12.13;;;8.20;;
8260;SDS011;64115;50.170;8.242;2023-07-02T07:29:36;12.60;;;8.97;;
8260;SDS011;64115;50.170;8.242;2023-07-02T07:32:03;12.03;;;8.40;;
8260;SDS011;64115;50.170;8.242;2023-07-02T07:34:30;13.03;;;8.83;;
8260;SDS011;64115;50.170;8.242;2023-07-02T07:36:57;13.07;;;8.67;;
8260;SDS011;64115;50.170;8.242;2023-07-02T07:39:25;15.93;;;9.40;;
8260;SDS011;64115;50.170;8.242;2023-07-02T07:41:52;15.57;;;9.57;;
8260;SDS011;64115;50.170;8.242;2023-07-02T07:44:19;12.47;;;7.90;;
8260;SDS011;64115;50.170;8.242;2023-07-02T07:46:48;12.10;;;8.27;;
8260;SDS011;64115;50.170;8.242;2023-07-02T07:49:15;11.03;;;8.13;;
8260;SDS011;64115;50.170;8.242;2023-07-02T07:51:42;13.80;;;8.80;;
8260;SDS011;64115;50.170;8.242;2023-07-02T07:54:10;10.13;;;8.20;;
8260;SDS011;64115;50.170;8.242;2023-07-02T07:56:38;16.53;;;8.40;;
8260;SDS011;64115;50.170;8.242;2023-07-02T07:59:05;13.03;;;8.23;;
8260;SDS011;64115;50.170;8.242;2023-07-02T08:01:34;12.10;;;7.67;;
8260;SDS011;64115;50.170;8.242;2023-07-02T08:04:00;12.77;;;8.37;;
8260;SDS011;64115;50.170;8.242;2023-07-02T08:06:27;10.40;;;8.30;;
8260;SDS011;64115;50.170;8.242;2023-07-02T08:08:54;11.77;;;8.60;;
8260;SDS011;64115;50.170;8.242;2023-07-02T08:11:20;9.60;;;8.03;;
8260;SDS011;64115;50.170;8.242;2023-07-02T08:13:48;11.07;;;8.53;;
8260;SDS011;64115;50.170;8.242;2023-07-02T08:16:15;11.70;;;8.17;;
8260;SDS011;64115;50.170;8.242;2023-07-02T08:18:42;11.17;;;8.50;;
8260;SDS011;64115;50.170;8.242;2023-07-02T08:21:09;9.47;;;7.73;;
8260;SDS011;64115;50.170;8.242;2023-07-02T08:23:36;10.93;;;7.87;;
8260;SDS011;64115;50.170;8.242;2023-07-02T08:26:02;11.23;;;7.60;;
8260;SDS011;64115;50.170;8.242;2023-07-02T08:28:29;9.53;;;7.43;;
8260;SDS011;64115;50.170;8.242;2023-07-02T08:30:57;11.03;;;7.70;;
8260;SDS011;64115;50.170;8.242;2023-07-02T08:33:24;9.50;;;7.70;;
8260;SDS011;64115;50.170;8.242;2023-07-02T08:35:51;11.30;;;7.80;;
8260;SDS011;64115;50.170;8.242;2023-07-02T08:38:17;13.87;;;7.20;;
8260;SDS011;64115;50.170;8.242;2023-07-02T08:40:44;9.70;;;7.20;;
8260;SDS011;64115;50.170;8.242;2023-07-02T08:43:11;11.13;;;7.00;;
8260;SDS011;64115;50.170;8.242;2023-07-02T08:45:40;7.57;;;6.80;;
8260;SDS011;64115;50.170;8.242;2023-07-02T08:48:08;10.33;;;7.70;;
8260;SDS011;64115;50.170;8.242;2023-07-02T08:50:36;10.37;;;7.47;;
8260;SDS011;64115;50.170;8.242;2023-07-02T08:53:03;11.33;;;7.33;;
8260;SDS011;64115;50.170;8.242;2023-07-02T08:55:29;12.63;;;7.63;;
8260;SDS011;64115;50.170;8.242;2023-07-02T08:57:56;11.53;;;7.53;;
8260;SDS011;64115;50.170;8.242;2023-07-02T09:00:25;14.43;;;7.63;;
8260;SDS011;64115;50.170;8.242;2023-07-02T09:02:52;14.50;;;8.60;;
8260;SDS011;64115;50.170;8.242;2023-07-02T09:05:20;10.83;;;7.50;;
8260;SDS011;64115;50.170;8.242;2023-07-02T09:07:47;10.20;;;7.70;;
8260;SDS011;64115;50.170;8.242;2023-07-02T09:10:25;11.67;;;8.13;;
8260;SDS011;64115;50.170;8.242;2023-07-02T09:13:02;13.70;;;8.70;;
8260;SDS011;64115;50.170;8.242;2023-07-02T09:15:34;11.13;;;8.17;;
8260;SDS011;64115;50.170;8.242;2023-07-02T09:18:02;10.73;;;7.97;;
8260;SDS011;64115;50.170;8.242;2023-07-02T09:20:33;9.70;;;7.63;;
8260;SDS011;64115;50.170;8.242;2023-07-02T09:23:00;13.53;;;8.13;;
8260;SDS011;64115;50.170;8.242;2023-07-02T09:25:33;9.80;;;8.17;;
8260;SDS011;64115;50.170;8.242;2023-07-02T09:28:00;12.87;;;7.77;;
8260;SDS011;64115;50.170;8.242;2023-07-02T09:30:27;13.00;;;8.67;;
8260;SDS011;64115;50.170;8.242;2023-07-02T09:32:54;12.07;;;8.53;;
8260;SDS011;64115;50.170;8.242;2023-07-02T09:35:31;15.10;;;8.93;;
8260;SDS011;64115;50.170;8.242;2023-07-02T09:38:00;12.90;;;7.80;;
8260;SDS011;64115;50.170;8.242;2023-07-02T09:40:27;12.20;;;8.47;;
8260;SDS011;64115;50.170;8.242;2023-07-02T09:42:54;9.80;;;7.63;;
8260;SDS011;64115;50.170;8.242;2023-07-02T09:45:22;10.20;;;8.13;;
8260;SDS011;64115;50.170;8.242;2023-07-02T09:47:49;12.73;;;8.53;;
8260;SDS011;64115;50.170;8.242;2023-07-02T09:50:23;12.10;;;8.03;;
8260;SDS011;64115;50.170;8.242;2023-07-02T09:52:51;9.33;;;7.80;;
8260;SDS011;64115;50.170;8.242;2023-07-02T09:55:18;11.10;;;8.00;;
8260;SDS011;64115;50.170;8.242;2023-07-02T09:57:47;10.17;;;7.60;;
8260;SDS011;64115;50.170;8.242;2023-07-02T10:00:14;10.97;;;7.27;;
8260;SDS011;64115;50.170;8.242;2023-07-02T10:02:46;8.47;;;7.33;;
8260;SDS011;64115;50.170;8.242;2023-07-02T10:05:24;9.77;;;7.90;;
8260;SDS011;64115;50.170;8.242;2023-07-02T10:07:53;8.80;;;7.33;;
8260;SDS011;64115;50.170;8.242;2023-07-02T10:10:27;10.57;;;7.47;;
8260;SDS011;64115;50.170;8.242;2023-07-02T10:12:55;8.57;;;7.20;;
8260;SDS011;64115;50.170;8.242;2023-07-02T10:15:26;11.57;;;7.43;;
8260;SDS011;64115;50.170;8.242;2023-07-02T10:17:57;8.60;;;7.00;;
8260;SDS011;64115;50.170;8.242;2023-07-02T10:20:31;8.27;;;6.97;;
8260;SDS011;64115;50.170;8.242;2023-07-02T10:23:00;9.17;;;7.60;;
8260;SDS011;64115;50.170;8.242;2023-07-02T10:25:29;8.73;;;7.07;;
8260;SDS011;64115;50.170;8.242;2023-07-02T10:27:56;8.33;;;6.73;;
8260;SDS011;64115;50.170;8.242;2023-07-02T10:30:31;8.27;;;6.83;;
8260;SDS011;64115;50.170;8.242;2023-07-02T10:33:08;8.70;;;7.50;;
8260;SDS011;64115;50.170;8.242;2023-07-02T10:35:36;10.27;;;8.40;;
8260;SDS011;64115;50.170;8.242;2023-07-02T10:38:05;8.50;;;7.50;;
8260;SDS011;64115;50.170;8.242;2023-07-02T10:40:39;10.03;;;7.60;;
8260;SDS011;64115;50.170;8.242;2023-07-02T10:43:07;9.33;;;7.30;;
8260;SDS011;64115;50.170;8.242;2023-07-02T10:45:34;9.60;;;7.80;;
8260;SDS011;64115;50.170;8.242;2023-07-02T10:48:02;11.90;;;7.47;;
8260;SDS011;64115;50.170;8.242;2023-07-02T10:50:30;10.80;;;7.20;;
8260;SDS011;64115;50.170;8.242;2023-07-02T10:52:58;9.50;;;6.63;;
8260;SDS011;64115;50.170;8.242;2023-07-02T10:55:26;8.97;;;7.13;;
8260;SDS011;64115;50.170;8.242;2023-07-02T10:58:03;10.67;;;7.67;;
8260;SDS011;64115;50.170;8.242;2023-07-02T11:00:30;9.60;;;7.53;;
8260;SDS011;64115;50.170;8.242;2023-07-02T11:02:57;8.23;;;7.03;;
8260;SDS011;64115;50.170;8.242;2023-07-02T11:05:25;10.40;;;7.37;;
8260;SDS011;64115;50.170;8.242;2023-07-02T11:07:52;9.87;;;7.70;;
8260;SDS011;64115;50.170;8.242;2023-07-02T11:10:22;12.60;;;7.90;;
8260;SDS011;64115;50.170;8.242;2023-07-02T11:12:51;8.80;;;7.40;;
8260;SDS011;64115;50.170;8.242;2023-07-02T11:15:17;8.57;;;7.10;;
8260;SDS011;64115;50.170;8.242;2023-07-02T11:17:45;10.20;;;7.07;;
8260;SDS011;64115;50.170;8.242;2023-07-02T11:20:12;9.90;;;6.83;;
8260;SDS011;64115;50.170;8.242;2023-07-02T11:22:40;8.37;;;7.03;;
8260;SDS011;64115;50.170;8.242;2023-07-02T11:25:15;8.30;;;6.53;;
8260;SDS011;64115;50.170;8.242;2023-07-02T11:27:43;8.93;;;6.63;;
8260;SDS011;64115;50.170;8.242;2023-07-02T11:30:12;9.93;;;6.70;;
8260;SDS011;64115;50.170;8.242;2023-07-02T11:32:49;10.73;;;7.20;;
8260;SDS011;64115;50.170;8.242;2023-07-02T11:35:17;7.90;;;6.67;;
8260;SDS011;64115;50.170;8.242;2023-07-02T11:37:44;9.00;;;7.10;;
8260;SDS011;64115;50.170;8.242;2023-07-02T11:40:14;9.27;;;8.07;;
8260;SDS011;64115;50.170;8.242;2023-07-02T11:42:43;13.47;;;7.67;;
8260;SDS011;64115;50.170;8.242;2023-07-02T11:45:10;8.60;;;7.40;;
8260;SDS011;64115;50.170;8.242;2023-07-02T11:47:38;10.57;;;7.50;;
8260;SDS011;64115;50.170;8.242;2023-07-02T11:50:05;11.60;;;7.40;;
8260;SDS011;64115;50.170;8.242;2023-07-02T11:52:32;9.17;;;7.30;;
8260;SDS011;64115;50.170;8.242;2023-07-02T11:54:59;14.93;;;7.10;;
8260;SDS011;64115;50.170;8.242;2023-07-02T11:57:25;12.00;;;7.70;;
8260;SDS011;64115;50.170;8.242;2023-07-02T11:59:52;8.43;;;7.30;;
8260;SDS011;64115;50.170;8.242;2023-07-02T12:02:20;8.93;;;7.07;;
8260;SDS011;64115;50.170;8.242;2023-07-02T12:04:47;9.13;;;6.70;;
8260;SDS011;64115;50.170;8.242;2023-07-02T12:07:14;12.73;;;7.50;;
8260;SDS011;64115;50.170;8.242;2023-07-02T12:09:41;10.27;;;7.13;;
8260;SDS011;64115;50.170;8.242;2023-07-02T12:12:07;10.30;;;7.03;;
8260;SDS011;64115;50.170;8.242;2023-07-02T12:14:34;10.10;;;7.17;;
8260;SDS011;64115;50.170;8.242;2023-07-02T12:17:02;8.10;;;7.03;;
8260;SDS011;64115;50.170;8.242;2023-07-02T12:19:30;8.97;;;7.70;;
8260;SDS011;64115;50.170;8.242;2023-07-02T12:21:57;13.70;;;8.30;;
8260;SDS011;64115;50.170;8.242;2023-07-02T12:24:24;9.10;;;7.33;;
8260;SDS011;64115;50.170;8.242;2023-07-02T12:26:51;10.20;;;8.03;;
8260;SDS011;64115;50.170;8.242;2023-07-02T12:29:18;11.93;;;8.33;;
8260;SDS011;64115;50.170;8.242;2023-07-02T12:31:44;11.10;;;8.60;;
8260;SDS011;64115;50.170;8.242;2023-07-02T12:34:13;11.73;;;8.40;;
8260;SDS011;64115;50.170;8.242;2023-07-02T12:36:41;10.53;;;8.03;;
8260;SDS011;64115;50.170;8.242;2023-07-02T12:39:08;11.23;;;8.03;;
8260;SDS011;64115;50.170;8.242;2023-07-02T12:41:35;9.87;;;8.57;;
8260;SDS011;64115;50.170;8.242;2023-07-02T12:44:03;10.70;;;8.47;;
8260;SDS011;64115;50.170;8.242;2023-07-02T12:46:30;12.57;;;8.63;;
8260;SDS011;64115;50.170;8.242;2023-07-02T12:48:57;11.40;;;8.20;;
8260;SDS011;64115;50.170;8.242;2023-07-02T12:51:24;12.63;;;8.13;;
8260;SDS011;64115;50.170;8.242;2023-07-02T12:53:52;10.93;;;8.27;;
8260;SDS011;64115;50.170;8.242;2023-07-02T12:56:19;10.60;;;8.80;;
8260;SDS011;64115;50.170;8.242;2023-07-02T12:58:45;10.10;;;8.27;;
8260;SDS011;64115;50.170;8.242;2023-07-02T13:01:12;10.50;;;8.07;;
8260;SDS011;64115;50.170;8.242;2023-07-02T13:03:44;11.90;;;8.00;;
8260;SDS011;64115;50.170;8.242;2023-07-02T13:06:11;14.47;;;8.47;;
8260;SDS011;64115;50.170;8.242;2023-07-02T13:08:38;12.03;;;8.47;;
8260;SDS011;64115;50.170;8.242;2023-07-02T13:11:06;12.87;;;8.63;;
8260;SDS011;64115;50.170;8.242;2023-07-02T13:13:33;9.47;;;8.20;;
8260;SDS011;64115;50.170;8.242;2023-07-02T13:16:01;11.87;;;8.53;;
8260;SDS011;64115;50.170;8.242;2023-07-02T13:18:27;11.67;;;8.50;;
8260;SDS011;64115;50.170;8.242;2023-07-02T13:20:54;10.50;;;8.97;;
8260;SDS011;64115;50.170;8.242;2023-07-02T13:23:21;11.40;;;9.17;;
8260;SDS011;64115;50.170;8.242;2023-07-02T13:25:48;12.37;;;8.97;;
8260;SDS011;64115;50.170;8.242;2023-07-02T13:28:16;12.37;;;9.30;;
8260;SDS011;64115;50.170;8.242;2023-07-02T13:30:43;11.77;;;9.40;;
8260;SDS011;64115;50.170;8.242;2023-07-02T13:33:09;13.80;;;9.87;;
8260;SDS011;64115;50.170;8.242;2023-07-02T13:35:36;12.13;;;9.57;;
8260;SDS011;64115;50.170;8.242;2023-07-02T13:38:03;12.87;;;9.60;;
8260;SDS011;64115;50.170;8.242;2023-07-02T13:40:30;13.93;;;9.97;;
8260;SDS011;64115;50.170;8.242;2023-07-02T13:42:57;13.77;;;9.77;;
8260;SDS011;64115;50.170;8.242;2023-07-02T13:45:25;13.70;;;8.93;;
8260;SDS011;64115;50.170;8.242;2023-07-02T13:47:52;12.47;;;9.03;;
8260;SDS011;64115;50.170;8.242;2023-07-02T13:50:18;12.67;;;9.60;;
8260;SDS011;64115;50.170;8.242;2023-07-02T13:52:45;13.00;;;9.60;;
8260;SDS011;64115;50.170;8.242;2023-07-02T13:55:13;13.33;;;9.40;;
8260;SDS011;64115;50.170;8.242;2023-07-02T13:57:39;12.27;;;9.93;;
8260;SDS011;64115;50.170;8.242;2023-07-02T14:00:08;11.87;;;9.07;;
8260;SDS011;64115;50.170;8.242;2023-07-02T14:02:36;13.70;;;9.00;;
8260;SDS011;64115;50.170;8.242;2023-07-02T14:05:03;14.27;;;9.87;;
8260;SDS011;64115;50.170;8.242;2023-07-02T14:07:30;15.27;;;10.17;;
8260;SDS011;64115;50.170;8.242;2023-07-02T14:09:56;13.17;;;9.23;;
8260;SDS011;64115;50.170;8.242;2023-07-02T14:12:23;14.60;;;9.10;;
8260;SDS011;64115;50.170;8.242;2023-07-02T14:14:50;12.67;;;9.47;;
8260;SDS011;64115;50.170;8.242;2023-07-02T14:17:18;12.20;;;9.50;;
8260;SDS011;64115;50.170;8.242;2023-07-02T14:19:45;15.07;;;9.33;;
8260;SDS011;64115;50.170;8.242;2023-07-02T14:22:11;13.27;;;9.70;;
8260;SDS011;64115;50.170;8.242;2023-07-02T14:24:38;13.27;;;9.70;;
8260;SDS011;64115;50.170;8.242;2023-07-02T14:27:05;11.60;;;9.33;;
8260;SDS011;64115;50.170;8.242;2023-07-02T14:29:32;13.73;;;9.40;;
8260;SDS011;64115;50.170;8.242;2023-07-02T14:31:59;15.53;;;10.13;;
8260;SDS011;64115;50.170;8.242;2023-07-02T14:34:27;13.43;;;9.20;;
8260;SDS011;64115;50.170;8.242;2023-07-02T14:36:55;13.50;;;9.33;;
8260;SDS011;64115;50.170;8.242;2023-07-02T14:39:22;12.73;;;9.57;;
8260;SDS011;64115;50.170;8.242;2023-07-02T14:41:48;12.70;;;9.27;;
8260;SDS011;64115;50.170;8.242;2023-07-02T14:44:15;15.23;;;9.33;;
8260;SDS011;64115;50.170;8.242;2023-07-02T14:46:43;16.60;;;10.07;;
8260;SDS011;64115;50.170;8.242;2023-07-02T14:49:09;12.17;;;9.43;;
8260;SDS011;64115;50.170;8.242;2023-07-02T14:51:38;13.30;;;8.93;;
8260;SDS011;64115;50.170;8.242;2023-07-02T14:54:04;12.30;;;9.33;;
8260;SDS011;64115;50.170;8.242;2023-07-02T14:56:31;11.87;;;9.67;;